createdAt,value
2017-10-28T00:00:26.278Z,83.72
2017-10-28T00:01:36.699Z,83.72
2017-10-28T00:02:46.795Z,83.72
2017-10-28T00:03:57.206Z,83.91
2017-10-28T00:05:07.302Z,83.62
2017-10-28T00:06:17.689Z,83.81
2017-10-28T00:07:28.086Z,84.29
2017-10-28T00:08:37.508Z,84.34
2017-10-28T00:09:47.591Z,83.77
2017-10-28T00:10:57.678Z,83.77
2017-10-28T00:12:08.069Z,83.58
2017-10-28T00:13:17.807Z,83.77
2017-10-28T00:14:28.238Z,84.44
2017-10-28T00:15:38.638Z,83.77
2017-10-28T00:16:49.038Z,83.77
2017-10-28T00:17:59.436Z,83.67
2017-10-28T00:19:09.504Z,83.39
2017-10-28T00:20:19.984Z,83.39
2017-10-28T00:21:30.379Z,83.58
2017-10-28T00:22:40.792Z,83.39
2017-10-28T00:23:50.862Z,83.39
2017-10-28T00:25:01.304Z,83.48
2017-10-28T00:26:11.750Z,83.67
2017-10-28T00:27:22.152Z,83.87
2017-10-28T00:28:31.893Z,83.2
2017-10-28T00:29:42.299Z,83.67
2017-10-28T00:30:52.704Z,83.67
2017-10-28T00:32:03.184Z,83.48
2017-10-28T00:33:13.575Z,83.29
2017-10-28T00:34:23.961Z,83.48
2017-10-28T00:35:34.359Z,83.39
2017-10-28T00:36:44.424Z,83.29
2017-10-28T00:37:54.821Z,83.39
2017-10-28T00:39:04.902Z,83.39
2017-10-28T00:40:14.990Z,83.39
2017-10-28T00:41:25.068Z,83.29
2017-10-28T00:42:35.451Z,83.2
2017-10-28T00:43:45.885Z,83.29
2017-10-28T00:44:55.989Z,83.67
2017-10-28T00:46:06.395Z,83.58
2017-10-28T00:47:16.466Z,83.58
2017-10-28T00:48:26.537Z,83.48
2017-10-28T00:49:36.980Z,83.77
2017-10-28T00:50:47.433Z,83.77
2017-10-28T00:51:57.833Z,83.48
2017-10-28T00:53:08.234Z,83.58
2017-10-28T00:54:18.626Z,83.58
2017-10-28T00:55:29.047Z,83.58
2017-10-28T00:56:39.447Z,83.58
2017-10-28T00:57:49.840Z,83.29
2017-10-28T00:59:00.242Z,83.48
2017-10-28T01:00:10.648Z,83.87
2017-10-28T01:01:21.103Z,83.67
2017-10-28T01:02:31.506Z,83.87
2017-10-28T01:03:41.578Z,83.87
2017-10-28T01:04:51.973Z,83.77
2017-10-28T01:06:02.369Z,83.87
2017-10-28T01:07:12.487Z,83.67
2017-10-28T01:08:22.558Z,83.67
2017-10-28T01:09:32.290Z,83.87
2017-10-28T01:10:42.698Z,83.67
2017-10-28T01:11:53.121Z,83.58
2017-10-28T01:13:03.529Z,83.87
2017-10-28T01:14:13.942Z,83.29
2017-10-28T01:15:24.355Z,83.77
2017-10-28T01:16:34.446Z,83.58
2017-10-28T01:17:44.852Z,83.48
2017-10-28T01:18:54.585Z,83.77
2017-10-28T01:20:04.659Z,83.29
2017-10-28T01:21:14.728Z,83.11
2017-10-28T01:22:25.130Z,83.2
2017-10-28T01:23:35.531Z,83.29
2017-10-28T01:24:45.987Z,83.29
2017-10-28T01:25:56.375Z,83.48
2017-10-28T01:27:06.459Z,83.48
2017-10-28T01:28:16.851Z,83.39
2017-10-28T01:29:27.259Z,83.29
2017-10-28T01:30:37.671Z,83.67
2017-10-28T01:31:47.743Z,83.67
2017-10-28T01:32:58.135Z,83.39
2017-10-28T01:34:08.206Z,83.67
2017-10-28T01:35:18.613Z,83.67
2017-10-28T01:36:28.685Z,83.67
2017-10-28T01:37:38.760Z,83.29
2017-10-28T01:38:49.148Z,83.39
2017-10-28T01:39:59.208Z,83.29
2017-10-28T01:41:09.603Z,83.39
2017-10-28T01:42:20.014Z,83.67
2017-10-28T01:43:30.456Z,83.39
2017-10-28T01:44:40.854Z,83.58
2017-10-28T01:45:50.926Z,83.67
2017-10-28T01:47:01.321Z,83.39
2017-10-28T01:48:11.872Z,83.58
2017-10-28T01:49:22.266Z,83.67
2017-10-28T01:50:32.689Z,83.67
2017-10-28T01:51:42.762Z,83.39
2017-10-28T01:52:52.830Z,83.58
2017-10-28T01:54:03.232Z,83.29
2017-10-28T01:55:13.639Z,83.39
2017-10-28T01:56:24.047Z,83.29
2017-10-28T01:57:34.111Z,83.29
2017-10-28T01:58:44.508Z,83.2
2017-10-28T01:59:54.878Z,83.39
2017-10-28T02:01:05.302Z,83.67
2017-10-28T02:02:15.721Z,83.58
2017-10-28T02:03:25.793Z,83.77
2017-10-28T02:04:36.167Z,83.58
2017-10-28T02:05:45.578Z,83.29
2017-10-28T02:06:55.669Z,83.67
2017-10-28T02:08:05.738Z,83.87
2017-10-28T02:09:15.802Z,83.77
2017-10-28T02:10:26.906Z,83.67
2017-10-28T02:11:36.648Z,83.67
2017-10-28T02:12:47.043Z,83.58
2017-10-28T02:13:57.448Z,83.48
2017-10-28T02:15:07.524Z,83.48
2017-10-28T02:16:17.910Z,83.29
2017-10-28T02:17:28.370Z,83.48
2017-10-28T02:18:38.813Z,83.67
2017-10-28T02:19:48.904Z,83.39
2017-10-28T02:20:58.983Z,83.29
2017-10-28T02:22:09.395Z,83.67
2017-10-28T02:23:19.842Z,83.67
2017-10-28T02:24:30.234Z,83.48
2017-10-28T02:25:40.641Z,83.58
2017-10-28T02:26:51.035Z,83.58
2017-10-28T02:28:01.429Z,83.67
2017-10-28T02:29:11.805Z,83.58
2017-10-28T02:30:22.349Z,83.87
2017-10-28T02:31:32.427Z,83.87
2017-10-28T02:32:42.826Z,83.87
2017-10-28T02:33:53.257Z,83.87
2017-10-28T02:35:03.703Z,83.77
2017-10-28T02:36:14.098Z,83.87
2017-10-28T02:37:24.506Z,83.39
2017-10-28T02:38:34.908Z,83.87
2017-10-28T02:39:45.319Z,83.58
2017-10-28T02:40:55.728Z,83.67
2017-10-28T02:42:06.134Z,83.77
2017-10-28T02:43:16.527Z,83.48
2017-10-28T02:44:26.916Z,83.39
2017-10-28T02:45:37.309Z,83.48
2017-10-28T02:46:47.709Z,83.77
2017-10-28T02:47:58.140Z,83.48
2017-10-28T02:49:08.541Z,83.48
2017-10-28T02:50:18.613Z,83.58
2017-10-28T02:51:28.351Z,83.58
2017-10-28T02:52:38.739Z,83.48
2017-10-28T02:53:48.791Z,83.58
2017-10-28T02:54:59.188Z,83.77
2017-10-28T02:56:09.599Z,83.48
2017-10-28T02:57:19.997Z,83.77
2017-10-28T02:58:30.095Z,83.77
2017-10-28T02:59:40.495Z,83.48
2017-10-28T03:00:50.573Z,83.48
2017-10-28T03:02:00.975Z,83.48
2017-10-28T03:33:20.490Z,79.89
2017-10-28T03:34:30.880Z,80.18
2017-10-28T03:35:41.274Z,81.51
2017-10-28T03:36:51.666Z,82.27
2017-10-28T03:38:01.732Z,82.08
2017-10-28T03:39:11.844Z,82.98
2017-10-28T03:40:22.232Z,83.36
2017-10-28T03:41:32.633Z,83.65
2017-10-28T03:42:43.035Z,83.93
2017-10-28T03:43:53.437Z,84.12
2017-10-28T03:45:03.877Z,84.41
2017-10-28T03:46:14.287Z,84.55
2017-10-28T03:47:24.686Z,84.16
2017-10-28T03:48:35.063Z,84.55
2017-10-28T03:49:45.465Z,84.49
2017-10-28T03:50:55.850Z,84.2
2017-10-28T03:52:06.254Z,84.11
2017-10-28T03:53:16.659Z,83.64
2017-10-28T03:54:26.730Z,83.83
2017-10-28T03:55:36.799Z,84.11
2017-10-28T03:56:47.233Z,84.25
2017-10-28T03:57:57.656Z,84.53
2017-10-28T03:59:08.056Z,84.25
2017-10-28T04:00:18.130Z,84.34
2017-10-28T04:01:28.524Z,84.06
2017-10-28T04:02:38.640Z,83.77
2017-10-28T04:03:48.038Z,84.44
2017-10-28T04:04:58.099Z,83.77
2017-10-28T04:06:08.168Z,83.77
2017-10-28T04:07:18.247Z,83.67
2017-10-28T04:08:28.656Z,83.72
2017-10-28T04:09:39.052Z,83.91
2017-10-28T04:10:49.455Z,83.91
2017-10-28T04:11:59.202Z,83.62
2017-10-28T04:13:09.606Z,83.62
2017-10-28T04:14:20.060Z,83.62
2017-10-28T04:15:30.140Z,83.34
2017-10-28T04:16:40.204Z,83.62
2017-10-28T04:17:50.287Z,83.91
2017-10-28T04:18:59.713Z,83.81
2017-10-28T04:20:10.207Z,84.48
2017-10-28T04:21:20.618Z,84.29
2017-10-28T04:22:30.687Z,84.48
2017-10-28T04:23:41.096Z,83.91
2017-10-28T04:24:51.497Z,83.81
2017-10-28T04:26:01.924Z,84
2017-10-28T04:27:12.328Z,84.1
2017-10-28T04:28:22.714Z,83.91
2017-10-28T04:29:33.122Z,83.81
2017-10-28T04:30:43.525Z,83.72
2017-10-28T04:31:53.933Z,83.72
2017-10-28T04:33:04.329Z,83.81
2017-10-28T04:34:14.724Z,83.91
2017-10-28T04:35:25.121Z,83.62
2017-10-28T04:36:35.186Z,83.62
2017-10-28T04:37:45.652Z,83.62
2017-10-28T04:38:56.085Z,83.62
2017-10-28T04:40:06.150Z,83.43
2017-10-28T04:41:16.218Z,83.24
2017-10-28T04:42:26.610Z,83.24
2017-10-28T04:43:36.363Z,83.34
2017-10-28T04:44:46.103Z,83.34
2017-10-28T04:45:56.503Z,83.34
2017-10-28T04:47:06.898Z,83.53
2017-10-28T04:48:16.980Z,83.24
2017-10-28T04:49:27.381Z,83.43
2017-10-28T04:50:37.779Z,83.72
2017-10-28T04:51:47.848Z,83.34
2017-10-28T04:52:57.917Z,83.34
2017-10-28T04:54:07.983Z,83.24
2017-10-28T04:55:18.389Z,83.34
2017-10-28T04:56:28.452Z,83.34
2017-10-28T04:57:38.844Z,83.34
2017-10-28T04:58:48.910Z,83.53
2017-10-28T04:59:58.987Z,83.34
2017-10-28T05:01:09.447Z,83.34
2017-10-28T05:02:19.851Z,83.34
2017-10-28T05:03:30.251Z,83.72
2017-10-28T05:04:40.655Z,83.62
2017-10-28T05:05:51.084Z,83.72
2017-10-28T05:07:01.477Z,83.72
2017-10-28T05:08:11.550Z,83.43
2017-10-28T05:09:21.940Z,83.43
2017-10-28T05:10:32.003Z,83.24
2017-10-28T05:11:42.385Z,83.62
2017-10-28T05:12:52.811Z,83.43
2017-10-28T05:14:03.205Z,83.72
2017-10-28T05:15:13.602Z,83.67
2017-10-28T05:16:24.028Z,83.72
2017-10-28T05:17:34.085Z,83.72
2017-10-28T05:18:44.494Z,83.43
2017-10-28T05:19:54.911Z,83.34
2017-10-28T05:21:05.323Z,83.76
2017-10-28T05:22:15.728Z,83.34
2017-10-28T05:23:26.145Z,83.76
2017-10-28T05:24:36.548Z,83.38
2017-10-28T05:25:46.946Z,83.76
2017-10-28T05:26:57.019Z,83.38
2017-10-28T05:28:07.445Z,83.38
2017-10-28T05:29:17.829Z,83.38
2017-10-28T05:30:28.267Z,83.67
2017-10-28T05:31:38.668Z,83.67
2017-10-28T05:32:49.088Z,83.76
2017-10-28T05:33:59.478Z,83.67
2017-10-28T05:35:09.887Z,83.76
2017-10-28T05:36:20.297Z,83.57
2017-10-28T05:37:30.384Z,83.67
2017-10-28T05:38:40.778Z,83.47
2017-10-28T05:39:51.190Z,83.76
2017-10-28T05:41:00.924Z,83.67
2017-10-28T05:42:11.370Z,83.67
2017-10-28T05:43:21.761Z,83.67
2017-10-28T05:44:32.166Z,83.76
2017-10-28T05:45:42.238Z,83.47
2017-10-28T05:46:52.383Z,83.47
2017-10-28T05:48:02.844Z,83.28
2017-10-28T05:49:13.250Z,83.28
2017-10-28T05:50:23.640Z,83.47
2017-10-28T05:51:34.035Z,83.95
2017-10-28T05:52:44.435Z,83.57
2017-10-28T05:53:54.889Z,83.95
2017-10-28T05:55:04.989Z,83.86
2017-10-28T05:56:15.408Z,83.57
2017-10-28T05:57:25.834Z,84.05
2017-10-28T05:58:36.237Z,83.57
2017-10-28T05:59:46.353Z,83.76
2017-10-28T06:00:56.428Z,83.47
2017-10-28T06:02:06.844Z,83.57
2017-10-28T06:03:17.243Z,83.57
2017-10-28T06:04:27.644Z,83.47
2017-10-28T06:05:37.381Z,83.57
2017-10-28T06:06:47.458Z,83.67
2017-10-28T06:07:57.861Z,83.47
2017-10-28T06:09:08.281Z,83.76
2017-10-28T06:10:18.345Z,83.57
2017-10-28T06:11:28.731Z,83.57
2017-10-28T06:12:39.148Z,83.67
2017-10-28T06:13:49.569Z,83.47
2017-10-28T06:14:59.667Z,83.47
2017-10-28T06:16:10.068Z,83.67
2017-10-28T06:17:20.537Z,83.38
2017-10-28T06:18:30.943Z,83.47
2017-10-28T06:19:41.350Z,83.86
2017-10-28T06:20:50.782Z,83.7
2017-10-28T06:22:01.186Z,83.57
2017-10-28T06:23:11.252Z,83.42
2017-10-28T06:24:21.662Z,83.33
2017-10-28T06:25:32.063Z,83.51
2017-10-28T06:26:41.811Z,83.61
2017-10-28T06:27:52.198Z,83.51
2017-10-28T06:29:02.266Z,83.7
2017-10-28T06:30:12.673Z,83.7
2017-10-28T06:31:22.764Z,83.33
2017-10-28T06:32:33.177Z,83.7
2017-10-28T06:33:43.570Z,83.8
2017-10-28T06:34:53.960Z,83.13
2017-10-28T06:36:04.351Z,83.42
2017-10-28T06:37:14.762Z,83.13
2017-10-28T06:38:24.854Z,83.51
2017-10-28T06:39:34.987Z,83.51
2017-10-28T06:40:45.120Z,82.89
2017-10-28T06:41:55.509Z,83.65
2017-10-28T06:43:05.594Z,83.37
2017-10-28T06:44:15.996Z,82.84
2017-10-28T06:45:25.752Z,83.51
2017-10-28T06:46:36.196Z,83.65
2017-10-28T06:47:46.603Z,82.89
2017-10-28T06:48:56.690Z,82.79
2017-10-28T06:50:06.477Z,82.98
2017-10-28T06:51:16.897Z,83.08
2017-10-28T06:52:27.327Z,82.6
2017-10-28T06:53:37.412Z,82.6
2017-10-28T06:54:47.821Z,82.31
2017-10-28T06:55:58.241Z,82.22
2017-10-28T06:57:08.631Z,82.45
2017-10-28T06:58:18.695Z,82.45
2017-10-28T06:59:29.902Z,82.45
2017-10-28T07:00:40.318Z,82.64
2017-10-28T07:01:50.742Z,82.26
2017-10-28T07:03:01.152Z,82.64
2017-10-28T07:04:11.233Z,82.93
2017-10-28T07:05:21.642Z,82.83
2017-10-28T07:06:31.718Z,82.26
2017-10-28T07:07:42.133Z,82.74
2017-10-28T07:08:52.200Z,82.54
2017-10-28T07:10:02.292Z,82.64
2017-10-28T07:11:12.694Z,82.54
2017-10-28T07:12:23.130Z,82.74
2017-10-28T07:13:33.549Z,82.35
2017-10-28T07:14:43.949Z,82.83
2017-10-28T07:15:53.695Z,82.54
2017-10-28T07:17:03.782Z,82.64
2017-10-28T07:18:14.214Z,82.26
2017-10-28T07:19:24.306Z,82.45
2017-10-28T07:20:34.941Z,82.35
2017-10-28T07:21:45.629Z,82.2
2017-10-28T07:22:56.332Z,82.35
2017-10-28T07:24:07.838Z,82.78
2017-10-28T07:25:18.226Z,82.68
2017-10-28T07:26:28.638Z,82.97
2017-10-28T07:27:39.047Z,82.59
2017-10-28T07:28:48.788Z,82.24
2017-10-28T07:29:59.201Z,81.86
2017-10-28T07:31:09.284Z,81.86
2017-10-28T07:32:19.361Z,82.34
2017-10-28T07:33:29.812Z,82.34
2017-10-28T07:34:39.566Z,82.76
2017-10-28T07:35:49.302Z,82
2017-10-28T07:36:59.383Z,81.9
2017-10-28T07:38:09.784Z,82.09
2017-10-28T07:39:19.855Z,81.27
2017-10-28T07:40:30.279Z,81.27
2017-10-28T07:41:40.686Z,81.85
2017-10-28T07:42:51.085Z,81.85
2017-10-28T07:44:01.498Z,81.56
2017-10-28T07:45:11.956Z,82.71
2017-10-28T07:46:22.039Z,82.42
2017-10-28T07:47:32.458Z,81.75
2017-10-28T07:48:42.899Z,81.75
2017-10-28T07:49:52.987Z,81.56
2017-10-28T07:51:03.464Z,81.22
2017-10-28T07:52:13.936Z,81.79
2017-10-28T07:53:24.338Z,81.31
2017-10-28T07:54:34.749Z,81.51
2017-10-28T07:55:45.133Z,82.08
2017-10-28T07:56:55.578Z,82.37
2017-10-28T07:58:05.984Z,82.71
2017-10-28T07:59:16.378Z,82.71
2017-10-28T08:00:26.780Z,83.09
2017-10-28T08:01:37.215Z,82.81
2017-10-28T08:02:47.350Z,82.81
2017-10-28T08:03:57.089Z,82.48
2017-10-28T08:05:07.194Z,82.57
2017-10-28T08:06:17.637Z,82.76
2017-10-28T08:07:27.710Z,82.67
2017-10-28T08:08:38.110Z,83.05
2017-10-28T08:09:48.522Z,82.42
2017-10-28T08:10:58.609Z,82.42
2017-10-28T08:12:09.011Z,81.95
2017-10-28T08:13:19.422Z,81.98
2017-10-28T08:14:29.849Z,81.12
2017-10-28T08:15:39.917Z,81.02
2017-10-28T08:16:50.850Z,80.68
2017-10-28T08:18:01.260Z,80.49
2017-10-28T08:19:11.692Z,80.43
2017-10-28T08:20:22.158Z,80.15
2017-10-28T08:21:31.916Z,80.34
2017-10-28T08:22:42.364Z,80.63
2017-10-28T08:23:52.707Z,81.01
2017-10-28T08:25:03.124Z,80.91
2017-10-28T08:26:12.868Z,81.1
2017-10-28T08:27:23.268Z,81.59
2017-10-28T08:28:33.683Z,81.87
2017-10-28T08:29:44.102Z,81.49
2017-10-28T08:30:54.520Z,81.97
2017-10-28T08:32:04.984Z,81.49
2017-10-28T08:33:15.100Z,81.59
2017-10-28T08:34:25.171Z,81.3
2017-10-28T08:35:35.257Z,81.97
2017-10-28T08:36:45.351Z,81.64
2017-10-28T08:37:55.754Z,82.31
2017-10-28T08:39:06.187Z,82.7
2017-10-28T08:40:16.602Z,82.79
2017-10-28T08:41:26.675Z,82.12
2017-10-28T08:42:37.072Z,82.6
2017-10-28T08:43:47.486Z,82.51
2017-10-28T08:44:57.892Z,83.14
2017-10-28T08:46:08.308Z,82.85
2017-10-28T08:47:18.071Z,83.09
2017-10-28T08:48:28.480Z,83.38
2017-10-28T08:49:38.929Z,82.71
2017-10-28T08:50:49.329Z,82.71
2017-10-28T08:51:59.415Z,82.62
2017-10-28T08:53:09.834Z,82.96
2017-10-28T08:54:20.260Z,82.48
2017-10-28T08:55:30.723Z,82.86
2017-10-28T08:56:41.157Z,82.67
2017-10-28T08:57:51.579Z,83.05
2017-10-28T08:59:01.982Z,82.86
2017-10-28T09:00:12.069Z,82.67
2017-10-28T09:01:22.202Z,82.48
2017-10-28T09:02:32.627Z,82.67
2017-10-28T09:03:43.054Z,82.09
2017-10-28T09:04:53.445Z,82.19
2017-10-28T09:06:03.518Z,82.48
2017-10-28T09:07:13.649Z,82.67
2017-10-28T09:08:24.063Z,82.86
2017-10-28T09:09:34.135Z,82.38
2017-10-28T09:10:44.549Z,83.05
2017-10-28T09:11:54.618Z,82.67
2017-10-28T09:13:05.019Z,82.82
2017-10-28T09:14:15.446Z,82.73
2017-10-28T09:15:25.536Z,82.43
2017-10-28T09:16:35.599Z,82.63
2017-10-28T09:17:45.990Z,82.34
2017-10-28T09:18:56.118Z,82.53
2017-10-28T09:20:06.543Z,82.34
2017-10-28T09:21:16.946Z,82.57
2017-10-28T09:22:28.211Z,82.63
2017-10-28T09:23:38.613Z,82.57
2017-10-28T09:24:48.740Z,82.29
2017-10-28T09:25:58.755Z,82.29
2017-10-28T09:27:08.868Z,82.29
2017-10-28T09:28:19.306Z,82.38
2017-10-28T09:29:29.054Z,82.67
2017-10-28T09:30:39.463Z,82.57
2017-10-28T09:31:49.892Z,82.38
2017-10-28T09:33:00.294Z,82.19
2017-10-28T09:34:10.703Z,82.14
2017-10-28T09:35:21.096Z,81.75
2017-10-28T09:36:31.505Z,81.75
2017-10-28T09:37:41.920Z,81.75
2017-10-28T09:38:52.012Z,81.37
2017-10-28T09:40:02.092Z,81.7
2017-10-28T09:41:12.168Z,81.79
2017-10-28T09:42:22.245Z,81.79
2017-10-28T09:43:32.308Z,81.89
2017-10-28T09:44:42.723Z,81.51
2017-10-28T09:45:53.379Z,81.51
2017-10-28T09:47:03.789Z,81.79
2017-10-28T09:48:13.865Z,81.6
2017-10-28T09:49:24.293Z,81.6
2017-10-28T09:50:34.383Z,81.79
2017-10-28T09:51:44.801Z,81.89
2017-10-28T09:52:55.215Z,81.12
2017-10-28T09:54:05.683Z,81.51
2017-10-28T09:55:15.763Z,81.35
2017-10-28T09:56:25.845Z,81.84
2017-10-28T09:57:35.583Z,81.54
2017-10-28T09:58:45.987Z,81.16
2017-10-28T09:59:56.490Z,81.41
2017-10-28T10:01:06.913Z,80.97
2017-10-28T10:02:17.338Z,80.78
2017-10-28T10:03:27.786Z,81.07
2017-10-28T10:04:38.208Z,81.3
2017-10-28T10:05:48.657Z,81.64
2017-10-28T10:06:58.725Z,81.45
2017-10-28T10:08:08.791Z,81.84
2017-10-28T10:09:19.190Z,81.6
2017-10-28T10:10:29.262Z,82.27
2017-10-28T10:11:39.689Z,82.65
2017-10-28T10:12:50.103Z,82.42
2017-10-28T10:14:00.522Z,82.08
2017-10-28T10:15:10.939Z,81.89
2017-10-28T10:16:21.366Z,81.7
2017-10-28T10:17:31.832Z,81.41
2017-10-28T10:18:42.273Z,81.45
2017-10-28T10:19:52.698Z,81.64
2017-10-28T10:21:02.794Z,81.64
2017-10-28T10:22:12.902Z,81.6
2017-10-28T10:23:23.353Z,82.08
2017-10-28T10:24:33.779Z,81.79
2017-10-28T10:25:43.866Z,81.98
2017-10-28T10:26:54.287Z,82.18
2017-10-28T10:28:04.710Z,81.6
2017-10-28T10:29:14.861Z,82.75
2017-10-28T10:30:25.264Z,82.04
2017-10-28T10:31:35.678Z,82.71
2017-10-28T10:32:46.066Z,83.09
2017-10-28T10:33:56.494Z,83.19
2017-10-28T10:35:06.644Z,83.09
2017-10-28T10:36:16.733Z,82.38
2017-10-28T10:37:27.147Z,82.76
2017-10-28T10:38:37.599Z,82.67
2017-10-28T10:39:47.690Z,83.05
2017-10-28T10:40:58.102Z,82.53
2017-10-28T10:42:08.197Z,82.57
2017-10-28T10:43:18.617Z,82.63
2017-10-28T10:44:29.035Z,83.05
2017-10-28T10:45:39.112Z,82.76
2017-10-28T10:46:49.223Z,82.63
2017-10-28T10:47:59.285Z,82.48
2017-10-28T10:49:09.674Z,82.19
2017-10-28T10:50:20.079Z,82.67
2017-10-28T10:51:30.529Z,82.38
2017-10-28T10:52:40.649Z,81.9
2017-10-28T10:53:51.300Z,81.52
2017-10-28T10:55:02.026Z,82.09
2017-10-28T10:56:12.460Z,82.19
2017-10-28T10:57:22.888Z,82.19
2017-10-28T10:58:33.340Z,82
2017-10-28T10:59:43.422Z,82.29
2017-10-28T11:00:53.830Z,82.29
2017-10-28T11:02:03.910Z,82.73
2017-10-28T11:03:14.328Z,83.11
2017-10-28T11:04:24.760Z,82.82
2017-10-28T11:05:35.159Z,82.43
2017-10-28T11:06:45.582Z,82.15
2017-10-28T11:07:55.985Z,81.62
2017-10-28T11:09:06.068Z,81.9
2017-10-28T11:10:16.546Z,81.52
2017-10-28T11:11:26.953Z,81.66
2017-10-28T11:12:36.718Z,81.18
2017-10-28T11:13:47.130Z,82.14
2017-10-28T11:14:57.528Z,81.85
2017-10-28T11:16:07.664Z,82.19
2017-10-28T11:17:17.736Z,82.19
2017-10-28T11:18:27.812Z,82.19
2017-10-28T11:19:38.285Z,81.71
2017-10-28T11:20:48.696Z,81.85
2017-10-28T11:21:58.773Z,82.38
2017-10-28T11:23:09.202Z,82.76
2017-10-28T11:24:19.622Z,82.19
2017-10-28T11:25:29.756Z,82.29
2017-10-28T11:26:40.178Z,82.67
2017-10-28T11:27:50.239Z,82.96
2017-10-28T11:29:00.651Z,82.24
2017-10-28T11:30:10.758Z,82.43
2017-10-28T11:31:21.173Z,82.82
2017-10-28T11:32:31.585Z,82.53
2017-10-28T11:33:42.038Z,82.73
2017-10-28T11:34:52.492Z,82.43
2017-10-28T11:36:02.928Z,82.63
2017-10-28T11:37:13.355Z,83.11
2017-10-28T11:38:23.106Z,82.73
2017-10-28T11:39:33.202Z,82.92
2017-10-28T11:40:43.276Z,82.34
2017-10-28T11:41:53.696Z,82.34
2017-10-28T11:43:04.166Z,83.11
2017-10-28T11:44:14.575Z,82.92
2017-10-28T11:45:24.710Z,82.73
2017-10-28T11:46:34.764Z,82.43
2017-10-28T11:47:44.532Z,82.24
2017-10-28T11:48:54.935Z,81.48
2017-10-28T11:50:05.019Z,82.19
2017-10-28T11:51:14.444Z,81.71
2017-10-28T11:52:24.867Z,81.62
2017-10-28T11:53:34.961Z,81.13
2017-10-28T11:54:45.038Z,81.23
2017-10-28T11:55:55.449Z,81.62
2017-10-28T11:57:05.906Z,81.33
2017-10-28T11:58:16.320Z,81.81
2017-10-28T11:59:26.753Z,81.81
2017-10-28T12:00:37.164Z,81.81
2017-10-28T12:01:47.242Z,81.9
2017-10-28T12:02:57.696Z,81.71
2017-10-28T12:04:08.126Z,81.81
2017-10-28T12:05:18.531Z,81.62
2017-10-28T12:06:28.937Z,81.71
2017-10-28T12:07:39.335Z,81.43
2017-10-28T12:08:49.410Z,81.56
2017-10-28T12:09:59.163Z,81.27
2017-10-28T12:11:09.563Z,81.56
2017-10-28T12:12:19.986Z,81.08
2017-10-28T12:13:29.733Z,80.99
2017-10-28T12:14:40.213Z,80.74
2017-10-28T12:15:50.623Z,80.35
2017-10-28T12:17:01.025Z,80.2
2017-10-28T12:18:11.452Z,80.3
2017-10-28T12:19:21.877Z,80.11
2017-10-28T12:20:31.969Z,80.2
2017-10-28T12:21:42.397Z,79.47
2017-10-28T12:22:52.504Z,79.76
2017-10-28T12:24:02.597Z,79.38
2017-10-28T12:25:13.014Z,79.47
2017-10-28T12:26:23.095Z,79.67
2017-10-28T12:27:33.489Z,80.15
2017-10-28T12:28:43.915Z,80.82
2017-10-28T12:29:54.350Z,80.82
2017-10-28T12:31:04.787Z,81.07
2017-10-28T12:32:15.221Z,81.54
2017-10-28T12:33:25.662Z,81.35
2017-10-28T12:34:36.072Z,81.84
2017-10-28T12:35:46.511Z,81.74
2017-10-28T12:36:56.934Z,81.84
2017-10-28T12:38:07.460Z,82.27
2017-10-28T12:39:17.879Z,83.14
2017-10-28T12:40:28.300Z,82.71
2017-10-28T12:41:39.126Z,83.25
2017-10-28T12:42:49.577Z,82.67
2017-10-28T12:44:00.034Z,83.25
2017-10-28T12:45:10.133Z,83.44
2017-10-28T12:46:20.554Z,83.34
2017-10-28T12:47:30.982Z,82.82
2017-10-28T12:48:41.068Z,82.53
2017-10-28T12:49:51.556Z,82.53
2017-10-28T12:51:01.636Z,82.82
2017-10-28T12:52:12.044Z,82.92
2017-10-28T12:53:22.476Z,82.53
2017-10-28T12:54:32.877Z,82.53
2017-10-28T12:55:43.371Z,82.34
2017-10-28T12:56:53.815Z,82.34
2017-10-28T12:58:04.245Z,82.68
2017-10-28T12:59:14.657Z,82.68
2017-10-28T13:00:25.065Z,82.3
2017-10-28T13:01:35.542Z,82.97
2017-10-28T13:02:45.947Z,82.68
2017-10-28T13:03:55.719Z,82.24
2017-10-28T13:05:06.139Z,82.53
2017-10-28T13:06:16.561Z,82.24
2017-10-28T13:07:26.960Z,82.43
2017-10-28T13:08:37.066Z,82.63
2017-10-28T13:09:47.515Z,82.53
2017-10-28T13:10:58.008Z,82.53
2017-10-28T13:12:08.418Z,82.43
2017-10-28T13:13:18.515Z,82.06
2017-10-28T13:14:28.945Z,82.06
2017-10-28T13:15:39.363Z,82.43
2017-10-28T13:16:49.451Z,82.53
2017-10-28T13:17:59.561Z,82.87
2017-10-28T13:19:10.017Z,82.4
2017-10-28T13:20:20.421Z,82.3
2017-10-28T13:21:30.842Z,82.3
2017-10-28T13:22:41.243Z,82.78
2017-10-28T13:23:51.326Z,82.97
2017-10-28T13:25:01.756Z,82.59
2017-10-28T13:26:12.183Z,82.87
2017-10-28T13:27:22.271Z,82.87
2017-10-28T13:28:32.728Z,82.87
2017-10-28T13:29:43.135Z,82.97
2017-10-28T13:30:53.603Z,82.87
2017-10-28T13:32:04.049Z,82.78
2017-10-28T13:33:14.159Z,82.87
2017-10-28T13:34:24.256Z,82.54
2017-10-28T13:35:34.381Z,82.93
2017-10-28T13:36:44.795Z,82.64
2017-10-28T13:37:55.204Z,82.54
2017-10-28T13:39:05.612Z,82.64
2017-10-28T13:40:15.723Z,82.54
2017-10-28T13:41:26.143Z,82.64
2017-10-28T13:42:36.258Z,82.64
2017-10-28T13:43:46.677Z,82.74
2017-10-28T13:44:56.773Z,82.83
2017-10-28T13:46:07.185Z,82.83
2017-10-28T13:47:17.625Z,82.64
2017-10-28T13:48:27.718Z,82.83
2017-10-28T13:49:38.160Z,82.64
2017-10-28T13:50:48.570Z,82.64
2017-10-28T13:51:58.996Z,82.35
2017-10-28T13:53:09.090Z,82.45
2017-10-28T13:54:19.556Z,82.31
2017-10-28T13:55:29.974Z,82.7
2017-10-28T13:56:40.385Z,82.89
2017-10-28T13:57:50.801Z,82.89
2017-10-28T13:59:00.888Z,82.6
2017-10-28T14:00:11.334Z,82.6
2017-10-28T14:01:21.433Z,82.41
2017-10-28T14:02:31.838Z,82.7
2017-10-28T14:03:42.240Z,82.98
2017-10-28T14:04:52.678Z,82.6
2017-10-28T14:06:03.150Z,83.08
2017-10-28T14:07:13.547Z,83.08
2017-10-28T14:08:23.636Z,82.98
2017-10-28T14:09:34.050Z,83.17
2017-10-28T14:10:44.454Z,83.37
2017-10-28T14:11:54.917Z,83.37
2017-10-28T14:13:05.948Z,83.08
2017-10-28T14:14:17.389Z,82.51
2017-10-28T14:15:27.827Z,82.51
2017-10-28T14:16:38.257Z,82.7
2017-10-28T14:17:48.108Z,82.79
2017-10-28T14:18:59.446Z,82.31
2017-10-28T14:20:10.599Z,82.79
2017-10-28T14:21:22.270Z,82.79
2017-10-28T14:22:37.088Z,82.6
2017-10-28T14:23:55.914Z,82.6
2017-10-28T14:25:07.823Z,82.6
2017-10-28T14:26:35.376Z,82.6
2017-10-28T14:29:16.923Z,82.79
2017-10-28T14:30:28.514Z,82.7
2017-10-28T14:31:39.827Z,82.41
2017-10-28T14:32:54.554Z,82.6
2017-10-28T14:34:24.395Z,82.41
2017-10-28T14:35:42.065Z,82.41
2017-10-28T14:36:55.852Z,82.6
2017-10-28T14:38:43.345Z,83.08
2017-10-28T14:39:56.966Z,83.37
2017-10-28T14:41:19.593Z,82.89
2017-10-28T14:42:49.370Z,83.27
2017-10-28T14:48:35.185Z,83.17
2017-10-28T14:49:45.285Z,82.98
2017-10-28T14:50:55.687Z,82.79
2017-10-28T14:52:05.771Z,82.79
2017-10-28T14:53:16.205Z,82.98
2017-10-28T14:54:26.614Z,82.98
2017-10-28T14:55:37.015Z,82.98
2017-10-28T14:56:47.435Z,82.79
2017-10-28T14:57:57.523Z,82.79
2017-10-28T14:59:07.699Z,82.7
2017-10-28T15:00:18.128Z,83.17
2017-10-28T15:01:28.597Z,82.98
2017-10-28T15:02:39.120Z,82.79
2017-10-28T15:03:49.536Z,82.79
2017-10-28T15:04:59.964Z,82.79
2017-10-28T15:06:10.137Z,82.98
2017-10-28T15:07:20.582Z,82.79
2017-10-28T15:08:31.053Z,83.65
2017-10-28T15:09:41.463Z,82.89
2017-10-28T15:10:51.958Z,83.65
2017-10-28T15:12:02.478Z,83.56
2017-10-28T15:13:12.892Z,83.65
2017-10-28T15:14:23.311Z,83.65
2017-10-28T15:15:33.732Z,82.89
2017-10-28T15:16:43.865Z,82.89
2017-10-28T15:17:55.242Z,83.56
2017-10-28T15:19:05.672Z,83.65
2017-10-28T15:20:16.100Z,83.56
2017-10-28T15:21:26.515Z,83.65
2017-10-28T15:22:36.925Z,82.89
2017-10-28T15:23:47.342Z,83.56
2017-10-28T15:24:57.761Z,83.56
2017-10-28T15:26:07.901Z,83.65
2017-10-28T15:27:18.335Z,83.65
2017-10-28T15:28:28.770Z,83.37
2017-10-28T15:29:39.930Z,83.56
2017-10-28T15:30:50.365Z,83.17
2017-10-28T15:32:00.773Z,83.46
2017-10-28T15:33:11.190Z,83.56
2017-10-28T15:34:21.286Z,83.17
2017-10-28T15:35:31.766Z,83.17
2017-10-28T15:36:42.207Z,83.56
2017-10-28T15:37:52.613Z,83.56
2017-10-28T15:39:03.031Z,83.65
2017-10-28T15:40:13.439Z,83.56
2017-10-28T15:41:23.935Z,83.17
2017-10-28T15:42:34.343Z,83.33
2017-10-28T15:43:44.801Z,83.46
2017-10-28T15:44:55.106Z,83.42
2017-10-28T15:46:05.199Z,83.37